sensor_id;sensor_type;location;lat;lon;timestamp;temperature;humidity
8957;DHT22;4513;50.054;8.230;2022-09-13T00:01:00;15.00;99.90
8957;DHT22;4513;50.054;8.230;2022-09-13T00:03:29;14.90;99.90
8957;DHT22;4513;50.054;8.230;2022-09-13T00:05:55;14.80;99.90
8957;DHT22;4513;50.054;8.230;2022-09-13T00:08:22;15.00;99.90
8957;DHT22;4513;50.054;8.230;2022-09-13T00:10:49;14.90;99.90
8957;DHT22;4513;50.054;8.230;2022-09-13T00:13:17;14.80;99.90
8957;DHT22;4513;50.054;8.230;2022-09-13T00:15:44;14.70;99.90
8957;DHT22;4513;50.054;8.230;2022-09-13T00:18:12;14.80;99.90
8957;DHT22;4513;50.054;8.230;2022-09-13T00:20:40;14.90;99.90
8957;DHT22;4513;50.054;8.230;2022-09-13T00:23:10;14.80;99.90
8957;DHT22;4513;50.054;8.230;2022-09-13T00:25:37;14.70;99.90
8957;DHT22;4513;50.054;8.230;2022-09-13T00:28:04;14.60;99.90
8957;DHT22;4513;50.054;8.230;2022-09-13T00:30:32;14.50;99.90
8957;DHT22;4513;50.054;8.230;2022-09-13T00:32:59;14.30;99.90
8957;DHT22;4513;50.054;8.230;2022-09-13T00:35:28;14.30;99.90
8957;DHT22;4513;50.054;8.230;2022-09-13T00:37:58;14.40;99.90
8957;DHT22;4513;50.054;8.230;2022-09-13T00:40:25;14.40;99.90
8957;DHT22;4513;50.054;8.230;2022-09-13T00:42:53;14.30;99.90
8957;DHT22;4513;50.054;8.230;2022-09-13T00:45:20;14.30;99.90
8957;DHT22;4513;50.054;8.230;2022-09-13T00:47:51;14.30;99.90
8957;DHT22;4513;50.054;8.230;2022-09-13T00:50:23;14.20;99.90
8957;DHT22;4513;50.054;8.230;2022-09-13T00:52:54;14.20;99.90
8957;DHT22;4513;50.054;8.230;2022-09-13T00:55:28;14.10;99.90
8957;DHT22;4513;50.054;8.230;2022-09-13T00:58:00;14.10;99.90
8957;DHT22;4513;50.054;8.230;2022-09-13T01:00:28;14.10;99.90
8957;DHT22;4513;50.054;8.230;2022-09-13T01:02:59;14.10;99.90
8957;DHT22;4513;50.054;8.230;2022-09-13T01:05:30;14.00;99.90
8957;DHT22;4513;50.054;8.230;2022-09-13T01:07:59;14.00;99.90
8957;DHT22;4513;50.054;8.230;2022-09-13T01:10:28;14.00;99.90
8957;DHT22;4513;50.054;8.230;2022-09-13T01:13:00;14.10;99.90
8957;DHT22;4513;50.054;8.230;2022-09-13T01:15:35;14.10;99.90
8957;DHT22;4513;50.054;8.230;2022-09-13T01:18:02;14.10;99.90
8957;DHT22;4513;50.054;8.230;2022-09-13T01:20:41;14.30;99.90
8957;DHT22;4513;50.054;8.230;2022-09-13T01:23:33;14.30;99.90
8957;DHT22;4513;50.054;8.230;2022-09-13T01:26:41;14.20;99.90
8957;DHT22;4513;50.054;8.230;2022-09-13T01:29:36;14.10;99.90
8957;DHT22;4513;50.054;8.230;2022-09-13T01:32:17;14.10;99.90
8957;DHT22;4513;50.054;8.230;2022-09-13T01:34:53;14.20;99.90
8957;DHT22;4513;50.054;8.230;2022-09-13T01:37:32;14.10;99.90
8957;DHT22;4513;50.054;8.230;2022-09-13T01:40:11;14.10;99.90
8957;DHT22;4513;50.054;8.230;2022-09-13T01:42:52;14.10;99.90
8957;DHT22;4513;50.054;8.230;2022-09-13T01:45:31;14.10;99.90
8957;DHT22;4513;50.054;8.230;2022-09-13T01:48:09;14.00;99.90
8957;DHT22;4513;50.054;8.230;2022-09-13T01:50:40;13.90;99.90
8957;DHT22;4513;50.054;8.230;2022-09-13T01:53:13;13.90;99.90
8957;DHT22;4513;50.054;8.230;2022-09-13T01:55:49;13.90;99.90
8957;DHT22;4513;50.054;8.230;2022-09-13T01:58:21;13.90;99.90
8957;DHT22;4513;50.054;8.230;2022-09-13T02:00:54;13.80;99.90
8957;DHT22;4513;50.054;8.230;2022-09-13T02:03:27;13.80;99.90
8957;DHT22;4513;50.054;8.230;2022-09-13T02:05:58;13.70;99.90
8957;DHT22;4513;50.054;8.230;2022-09-13T02:08:33;13.70;99.90
8957;DHT22;4513;50.054;8.230;2022-09-13T02:11:07;13.70;99.90
8957;DHT22;4513;50.054;8.230;2022-09-13T02:13:37;13.80;99.90
8957;DHT22;4513;50.054;8.230;2022-09-13T02:16:09;13.90;99.90
8957;DHT22;4513;50.054;8.230;2022-09-13T02:18:39;13.90;99.90
8957;DHT22;4513;50.054;8.230;2022-09-13T02:21:10;13.90;99.90
8957;DHT22;4513;50.054;8.230;2022-09-13T02:23:41;13.90;99.90
8957;DHT22;4513;50.054;8.230;2022-09-13T02:26:11;13.90;99.90
8957;DHT22;4513;50.054;8.230;2022-09-13T02:28:47;14.00;99.90
8957;DHT22;4513;50.054;8.230;2022-09-13T02:31:16;14.10;99.90
8957;DHT22;4513;50.054;8.230;2022-09-13T02:33:48;14.10;99.90
8957;DHT22;4513;50.054;8.230;2022-09-13T02:36:21;14.00;99.90
8957;DHT22;4513;50.054;8.230;2022-09-13T02:38:52;14.00;99.90
8957;DHT22;4513;50.054;8.230;2022-09-13T02:41:23;14.10;99.90
8957;DHT22;4513;50.054;8.230;2022-09-13T02:43:58;14.00;99.90
8957;DHT22;4513;50.054;8.230;2022-09-13T02:46:45;14.10;99.90
8957;DHT22;4513;50.054;8.230;2022-09-13T02:49:19;14.10;99.90
8957;DHT22;4513;50.054;8.230;2022-09-13T02:51:53;14.20;99.90
8957;DHT22;4513;50.054;8.230;2022-09-13T02:54:26;14.30;99.90
8957;DHT22;4513;50.054;8.230;2022-09-13T02:57:00;14.30;99.90
8957;DHT22;4513;50.054;8.230;2022-09-13T02:59:27;14.30;99.90
8957;DHT22;4513;50.054;8.230;2022-09-13T03:01:58;14.40;99.90
8957;DHT22;4513;50.054;8.230;2022-09-13T03:04:28;14.40;99.90
8957;DHT22;4513;50.054;8.230;2022-09-13T03:06:55;14.40;99.90
8957;DHT22;4513;50.054;8.230;2022-09-13T03:09:22;14.50;99.90
8957;DHT22;4513;50.054;8.230;2022-09-13T03:11:59;14.60;99.90
8957;DHT22;4513;50.054;8.230;2022-09-13T03:14:39;14.60;99.90
8957;DHT22;4513;50.054;8.230;2022-09-13T03:17:16;14.50;99.90
8957;DHT22;4513;50.054;8.230;2022-09-13T03:20:05;14.50;99.90
8957;DHT22;4513;50.054;8.230;2022-09-13T03:22:54;14.50;99.90
8957;DHT22;4513;50.054;8.230;2022-09-13T03:25:31;14.50;99.90
8957;DHT22;4513;50.054;8.230;2022-09-13T03:28:05;14.50;99.90
8957;DHT22;4513;50.054;8.230;2022-09-13T03:30:36;14.40;99.90
8957;DHT22;4513;50.054;8.230;2022-09-13T03:33:09;14.40;99.90
8957;DHT22;4513;50.054;8.230;2022-09-13T03:35:43;14.30;99.90
8957;DHT22;4513;50.054;8.230;2022-09-13T03:38:12;14.30;99.90
8957;DHT22;4513;50.054;8.230;2022-09-13T03:40:44;14.30;99.90
8957;DHT22;4513;50.054;8.230;2022-09-13T03:43:16;14.30;99.90
8957;DHT22;4513;50.054;8.230;2022-09-13T03:45:55;14.30;99.90
8957;DHT22;4513;50.054;8.230;2022-09-13T03:48:24;14.30;99.90
8957;DHT22;4513;50.054;8.230;2022-09-13T03:50:53;14.20;99.90
8957;DHT22;4513;50.054;8.230;2022-09-13T03:53:22;14.20;99.90
8957;DHT22;4513;50.054;8.230;2022-09-13T03:55:50;14.20;99.90
8957;DHT22;4513;50.054;8.230;2022-09-13T03:58:18;14.20;99.90
8957;DHT22;4513;50.054;8.230;2022-09-13T04:00:46;14.40;99.90
8957;DHT22;4513;50.054;8.230;2022-09-13T04:03:14;14.40;99.90
8957;DHT22;4513;50.054;8.230;2022-09-13T04:05:40;14.40;99.90
8957;DHT22;4513;50.054;8.230;2022-09-13T04:08:09;14.40;99.90
8957;DHT22;4513;50.054;8.230;2022-09-13T04:10:36;14.40;99.90
8957;DHT22;4513;50.054;8.230;2022-09-13T04:13:03;14.20;99.90
8957;DHT22;4513;50.054;8.230;2022-09-13T04:15:30;14.30;99.90
8957;DHT22;4513;50.054;8.230;2022-09-13T04:17:57;14.30;99.90
8957;DHT22;4513;50.054;8.230;2022-09-13T04:20:24;14.30;99.90
8957;DHT22;4513;50.054;8.230;2022-09-13T04:22:51;14.30;99.90
8957;DHT22;4513;50.054;8.230;2022-09-13T04:25:19;14.30;99.90
8957;DHT22;4513;50.054;8.230;2022-09-13T04:27:47;14.30;99.90
8957;DHT22;4513;50.054;8.230;2022-09-13T04:30:14;14.30;99.90
8957;DHT22;4513;50.054;8.230;2022-09-13T04:32:42;14.20;99.90
8957;DHT22;4513;50.054;8.230;2022-09-13T04:35:09;14.10;99.90
8957;DHT22;4513;50.054;8.230;2022-09-13T04:37:36;14.20;99.90
8957;DHT22;4513;50.054;8.230;2022-09-13T04:40:04;14.20;99.90
8957;DHT22;4513;50.054;8.230;2022-09-13T04:42:33;14.40;99.90
8957;DHT22;4513;50.054;8.230;2022-09-13T04:45:00;14.30;99.90
8957;DHT22;4513;50.054;8.230;2022-09-13T04:47:27;14.20;99.90
8957;DHT22;4513;50.054;8.230;2022-09-13T04:49:53;14.20;99.90
8957;DHT22;4513;50.054;8.230;2022-09-13T04:52:20;14.20;99.90
8957;DHT22;4513;50.054;8.230;2022-09-13T04:54:47;14.20;99.90
8957;DHT22;4513;50.054;8.230;2022-09-13T04:57:14;14.20;99.90
8957;DHT22;4513;50.054;8.230;2022-09-13T04:59:42;14.20;99.90
8957;DHT22;4513;50.054;8.230;2022-09-13T05:02:09;14.40;99.90
8957;DHT22;4513;50.054;8.230;2022-09-13T05:04:36;14.40;99.90
8957;DHT22;4513;50.054;8.230;2022-09-13T05:07:03;14.50;99.90
8957;DHT22;4513;50.054;8.230;2022-09-13T05:09:30;14.50;99.90
8957;DHT22;4513;50.054;8.230;2022-09-13T05:11:57;14.50;99.90
8957;DHT22;4513;50.054;8.230;2022-09-13T05:14:24;14.50;99.90
8957;DHT22;4513;50.054;8.230;2022-09-13T05:16:52;14.40;99.90
8957;DHT22;4513;50.054;8.230;2022-09-13T05:19:19;14.40;99.90
8957;DHT22;4513;50.054;8.230;2022-09-13T05:21:46;14.40;99.90
8957;DHT22;4513;50.054;8.230;2022-09-13T05:24:13;14.60;99.90
8957;DHT22;4513;50.054;8.230;2022-09-13T05:26:40;14.70;99.90
8957;DHT22;4513;50.054;8.230;2022-09-13T05:29:07;14.70;99.90
8957;DHT22;4513;50.054;8.230;2022-09-13T05:31:35;14.70;99.90
8957;DHT22;4513;50.054;8.230;2022-09-13T05:34:06;14.60;99.90
8957;DHT22;4513;50.054;8.230;2022-09-13T05:36:35;14.70;99.90
8957;DHT22;4513;50.054;8.230;2022-09-13T05:39:02;14.70;99.90
8957;DHT22;4513;50.054;8.230;2022-09-13T05:41:29;14.70;99.90
8957;DHT22;4513;50.054;8.230;2022-09-13T05:43:56;14.80;99.90
8957;DHT22;4513;50.054;8.230;2022-09-13T05:46:23;14.90;99.90
8957;DHT22;4513;50.054;8.230;2022-09-13T05:48:50;14.90;99.90
8957;DHT22;4513;50.054;8.230;2022-09-13T05:51:19;15.00;99.90
8957;DHT22;4513;50.054;8.230;2022-09-13T05:53:48;15.00;99.90
8957;DHT22;4513;50.054;8.230;2022-09-13T05:56:16;15.10;99.90
8957;DHT22;4513;50.054;8.230;2022-09-13T05:58:44;15.10;99.90
8957;DHT22;4513;50.054;8.230;2022-09-13T06:01:13;15.10;99.90
8957;DHT22;4513;50.054;8.230;2022-09-13T06:03:40;15.10;99.90
8957;DHT22;4513;50.054;8.230;2022-09-13T06:06:09;15.20;99.90
8957;DHT22;4513;50.054;8.230;2022-09-13T06:08:37;15.20;99.90
8957;DHT22;4513;50.054;8.230;2022-09-13T06:11:05;15.20;99.90
8957;DHT22;4513;50.054;8.230;2022-09-13T06:13:35;15.30;99.90
8957;DHT22;4513;50.054;8.230;2022-09-13T06:16:04;15.30;99.90
8957;DHT22;4513;50.054;8.230;2022-09-13T06:18:31;15.40;99.90
8957;DHT22;4513;50.054;8.230;2022-09-13T06:20:59;15.40;99.90
8957;DHT22;4513;50.054;8.230;2022-09-13T06:23:27;15.50;99.90
8957;DHT22;4513;50.054;8.230;2022-09-13T06:26:02;15.60;99.90
8957;DHT22;4513;50.054;8.230;2022-09-13T06:28:30;15.70;99.90
8957;DHT22;4513;50.054;8.230;2022-09-13T06:31:02;15.70;99.90
8957;DHT22;4513;50.054;8.230;2022-09-13T06:33:28;15.70;99.90
8957;DHT22;4513;50.054;8.230;2022-09-13T06:35:59;15.60;99.90
8957;DHT22;4513;50.054;8.230;2022-09-13T06:38:26;15.70;99.90
8957;DHT22;4513;50.054;8.230;2022-09-13T06:41:00;15.70;99.90
8957;DHT22;4513;50.054;8.230;2022-09-13T06:43:27;15.70;99.90
8957;DHT22;4513;50.054;8.230;2022-09-13T06:45:59;15.70;99.90
8957;DHT22;4513;50.054;8.230;2022-09-13T06:48:25;15.80;99.90
8957;DHT22;4513;50.054;8.230;2022-09-13T06:50:56;15.80;99.90
8957;DHT22;4513;50.054;8.230;2022-09-13T06:53:23;15.80;99.90
8957;DHT22;4513;50.054;8.230;2022-09-13T06:56:00;15.80;99.90
8957;DHT22;4513;50.054;8.230;2022-09-13T06:58:28;15.90;99.90
8957;DHT22;4513;50.054;8.230;2022-09-13T07:01:04;16.00;99.90
8957;DHT22;4513;50.054;8.230;2022-09-13T07:03:34;16.00;99.90
8957;DHT22;4513;50.054;8.230;2022-09-13T07:06:06;16.00;99.90
8957;DHT22;4513;50.054;8.230;2022-09-13T07:08:33;16.10;99.90
8957;DHT22;4513;50.054;8.230;2022-09-13T07:11:01;16.20;99.90
8957;DHT22;4513;50.054;8.230;2022-09-13T07:13:28;16.20;99.90
8957;DHT22;4513;50.054;8.230;2022-09-13T07:15:55;16.20;99.90
8957;DHT22;4513;50.054;8.230;2022-09-13T07:18:22;16.30;99.90
8957;DHT22;4513;50.054;8.230;2022-09-13T07:20:49;16.20;99.90
8957;DHT22;4513;50.054;8.230;2022-09-13T07:23:15;16.30;99.90
8957;DHT22;4513;50.054;8.230;2022-09-13T07:25:42;16.30;99.90
8957;DHT22;4513;50.054;8.230;2022-09-13T07:28:10;16.30;99.90
8957;DHT22;4513;50.054;8.230;2022-09-13T07:30:37;16.30;99.90
8957;DHT22;4513;50.054;8.230;2022-09-13T07:33:04;16.30;99.90
8957;DHT22;4513;50.054;8.230;2022-09-13T07:35:31;16.30;99.90
8957;DHT22;4513;50.054;8.230;2022-09-13T07:37:57;16.30;99.90
8957;DHT22;4513;50.054;8.230;2022-09-13T07:40:24;16.40;99.90
8957;DHT22;4513;50.054;8.230;2022-09-13T07:42:51;16.40;99.90
8957;DHT22;4513;50.054;8.230;2022-09-13T07:45:19;16.40;99.90
8957;DHT22;4513;50.054;8.230;2022-09-13T07:47:46;16.60;99.90
8957;DHT22;4513;50.054;8.230;2022-09-13T07:50:13;16.70;99.90
8957;DHT22;4513;50.054;8.230;2022-09-13T07:52:40;16.80;99.90
8957;DHT22;4513;50.054;8.230;2022-09-13T07:55:08;16.90;99.90
8957;DHT22;4513;50.054;8.230;2022-09-13T07:57:35;17.00;99.90
8957;DHT22;4513;50.054;8.230;2022-09-13T08:00:02;17.00;99.90
8957;DHT22;4513;50.054;8.230;2022-09-13T08:02:31;17.00;99.90
8957;DHT22;4513;50.054;8.230;2022-09-13T08:04:58;17.10;99.90
8957;DHT22;4513;50.054;8.230;2022-09-13T08:07:25;17.10;99.90
8957;DHT22;4513;50.054;8.230;2022-09-13T08:09:51;17.20;99.90
8957;DHT22;4513;50.054;8.230;2022-09-13T08:12:20;17.20;99.90
8957;DHT22;4513;50.054;8.230;2022-09-13T08:14:47;17.40;99.90
8957;DHT22;4513;50.054;8.230;2022-09-13T08:17:14;17.50;99.90
8957;DHT22;4513;50.054;8.230;2022-09-13T08:19:42;17.60;99.90
8957;DHT22;4513;50.054;8.230;2022-09-13T08:22:09;17.50;99.90
8957;DHT22;4513;50.054;8.230;2022-09-13T08:24:35;17.50;99.90
8957;DHT22;4513;50.054;8.230;2022-09-13T08:27:02;17.50;99.90
8957;DHT22;4513;50.054;8.230;2022-09-13T08:29:29;17.50;99.90
8957;DHT22;4513;50.054;8.230;2022-09-13T08:31:56;17.50;99.90
8957;DHT22;4513;50.054;8.230;2022-09-13T08:34:23;17.50;99.90
8957;DHT22;4513;50.054;8.230;2022-09-13T08:36:51;17.40;99.90
8957;DHT22;4513;50.054;8.230;2022-09-13T08:39:18;17.60;99.90
8957;DHT22;4513;50.054;8.230;2022-09-13T08:44:51;17.70;99.90
8957;DHT22;4513;50.054;8.230;2022-09-13T08:47:37;17.70;99.90
8957;DHT22;4513;50.054;8.230;2022-09-13T08:50:11;17.60;99.90
8957;DHT22;4513;50.054;8.230;2022-09-13T08:52:47;17.50;99.90
8957;DHT22;4513;50.054;8.230;2022-09-13T08:55:24;17.40;99.90
8957;DHT22;4513;50.054;8.230;2022-09-13T08:58:01;17.30;99.90
8957;DHT22;4513;50.054;8.230;2022-09-13T09:00:34;17.10;99.90
8957;DHT22;4513;50.054;8.230;2022-09-13T09:03:27;17.10;99.90
8957;DHT22;4513;50.054;8.230;2022-09-13T09:05:56;17.10;99.90
8957;DHT22;4513;50.054;8.230;2022-09-13T09:08:30;17.00;99.90
8957;DHT22;4513;50.054;8.230;2022-09-13T09:11:02;17.00;99.90
8957;DHT22;4513;50.054;8.230;2022-09-13T09:13:39;17.00;99.90
8957;DHT22;4513;50.054;8.230;2022-09-13T09:16:15;17.00;99.90
8957;DHT22;4513;50.054;8.230;2022-09-13T09:18:47;17.00;99.90
8957;DHT22;4513;50.054;8.230;2022-09-13T09:21:16;17.00;99.90
8957;DHT22;4513;50.054;8.230;2022-09-13T09:23:49;17.00;99.90
8957;DHT22;4513;50.054;8.230;2022-09-13T09:26:18;16.90;99.90
8957;DHT22;4513;50.054;8.230;2022-09-13T09:28:47;16.90;99.90
8957;DHT22;4513;50.054;8.230;2022-09-13T09:31:20;17.00;99.90
8957;DHT22;4513;50.054;8.230;2022-09-13T09:34:00;17.00;99.90
8957;DHT22;4513;50.054;8.230;2022-09-13T09:36:35;17.00;99.90
8957;DHT22;4513;50.054;8.230;2022-09-13T09:39:05;16.90;99.90
8957;DHT22;4513;50.054;8.230;2022-09-13T09:41:34;16.90;99.90
8957;DHT22;4513;50.054;8.230;2022-09-13T09:44:15;16.80;99.90
8957;DHT22;4513;50.054;8.230;2022-09-13T09:46:44;16.80;99.90
8957;DHT22;4513;50.054;8.230;2022-09-13T09:49:16;16.90;99.90
8957;DHT22;4513;50.054;8.230;2022-09-13T09:52:02;16.90;99.90
8957;DHT22;4513;50.054;8.230;2022-09-13T09:54:34;16.90;99.90
8957;DHT22;4513;50.054;8.230;2022-09-13T09:57:02;16.80;99.90
8957;DHT22;4513;50.054;8.230;2022-09-13T09:59:31;16.80;99.90
8957;DHT22;4513;50.054;8.230;2022-09-13T10:01:58;16.80;99.90
8957;DHT22;4513;50.054;8.230;2022-09-13T10:04:27;16.90;99.90
8957;DHT22;4513;50.054;8.230;2022-09-13T10:07:09;16.90;99.90
8957;DHT22;4513;50.054;8.230;2022-09-13T10:09:38;16.80;99.90
8957;DHT22;4513;50.054;8.230;2022-09-13T10:12:06;16.80;99.90
8957;DHT22;4513;50.054;8.230;2022-09-13T10:14:37;16.80;99.90
8957;DHT22;4513;50.054;8.230;2022-09-13T10:17:13;16.80;99.90
8957;DHT22;4513;50.054;8.230;2022-09-13T10:19:50;16.90;99.90
8957;DHT22;4513;50.054;8.230;2022-09-13T10:22:20;17.00;99.90
8957;DHT22;4513;50.054;8.230;2022-09-13T10:24:48;17.10;99.90
8957;DHT22;4513;50.054;8.230;2022-09-13T10:27:30;17.20;99.90
8957;DHT22;4513;50.054;8.230;2022-09-13T10:30:00;17.20;99.90
8957;DHT22;4513;50.054;8.230;2022-09-13T10:32:29;17.20;99.90
8957;DHT22;4513;50.054;8.230;2022-09-13T10:35:06;17.30;99.90
8957;DHT22;4513;50.054;8.230;2022-09-13T10:37:35;17.40;99.90
8957;DHT22;4513;50.054;8.230;2022-09-13T10:40:07;17.50;99.90
8957;DHT22;4513;50.054;8.230;2022-09-13T10:42:49;17.60;99.90
8957;DHT22;4513;50.054;8.230;2022-09-13T10:45:22;17.70;99.90
8957;DHT22;4513;50.054;8.230;2022-09-13T10:47:51;17.90;99.90
8957;DHT22;4513;50.054;8.230;2022-09-13T10:50:21;18.00;99.90
8957;DHT22;4513;50.054;8.230;2022-09-13T10:52:49;18.20;99.90
8957;DHT22;4513;50.054;8.230;2022-09-13T10:55:30;18.10;99.90
8957;DHT22;4513;50.054;8.230;2022-09-13T10:58:18;18.20;99.90
8957;DHT22;4513;50.054;8.230;2022-09-13T11:00:59;18.40;99.90
8957;DHT22;4513;50.054;8.230;2022-09-13T11:03:49;18.60;99.90
8957;DHT22;4513;50.054;8.230;2022-09-13T11:06:27;18.60;99.90
8957;DHT22;4513;50.054;8.230;2022-09-13T11:09:06;18.60;99.90
8957;DHT22;4513;50.054;8.230;2022-09-13T11:11:41;18.50;99.90
8957;DHT22;4513;50.054;8.230;2022-09-13T11:14:22;18.40;99.90
8957;DHT22;4513;50.054;8.230;2022-09-13T11:16:58;18.50;99.90
8957;DHT22;4513;50.054;8.230;2022-09-13T11:19:54;18.40;99.90
8957;DHT22;4513;50.054;8.230;2022-09-13T11:22:45;18.40;99.90
8957;DHT22;4513;50.054;8.230;2022-09-13T11:25:29;18.40;99.90
8957;DHT22;4513;50.054;8.230;2022-09-13T11:28:06;18.40;99.90
8957;DHT22;4513;50.054;8.230;2022-09-13T11:30:44;18.50;99.90
8957;DHT22;4513;50.054;8.230;2022-09-13T11:33:32;18.40;99.90
8957;DHT22;4513;50.054;8.230;2022-09-13T11:39:06;18.50;99.90
8957;DHT22;4513;50.054;8.230;2022-09-13T11:41:41;18.60;99.90
8957;DHT22;4513;50.054;8.230;2022-09-13T11:44:31;18.60;99.90
8957;DHT22;4513;50.054;8.230;2022-09-13T11:47:07;18.70;99.90
8957;DHT22;4513;50.054;8.230;2022-09-13T11:49:56;18.70;99.90
8957;DHT22;4513;50.054;8.230;2022-09-13T11:52:39;18.80;99.90
8957;DHT22;4513;50.054;8.230;2022-09-13T11:55:16;18.90;99.90
8957;DHT22;4513;50.054;8.230;2022-09-13T11:57:47;19.00;99.90
8957;DHT22;4513;50.054;8.230;2022-09-13T12:00:21;19.10;99.90
8957;DHT22;4513;50.054;8.230;2022-09-13T12:02:55;19.40;99.90
8957;DHT22;4513;50.054;8.230;2022-09-13T12:05:26;19.40;99.90
8957;DHT22;4513;50.054;8.230;2022-09-13T12:07:56;19.50;99.90
8957;DHT22;4513;50.054;8.230;2022-09-13T12:10:31;19.50;99.90
8957;DHT22;4513;50.054;8.230;2022-09-13T12:13:01;19.50;99.90
8957;DHT22;4513;50.054;8.230;2022-09-13T12:15:35;19.60;99.90
8957;DHT22;4513;50.054;8.230;2022-09-13T12:18:07;19.70;99.90
8957;DHT22;4513;50.054;8.230;2022-09-13T12:20:39;19.90;99.90
8957;DHT22;4513;50.054;8.230;2022-09-13T12:23:11;20.10;99.90
8957;DHT22;4513;50.054;8.230;2022-09-13T12:25:45;20.10;99.90
8957;DHT22;4513;50.054;8.230;2022-09-13T12:28:18;20.10;99.90
8957;DHT22;4513;50.054;8.230;2022-09-13T12:30:52;20.10;99.90
8957;DHT22;4513;50.054;8.230;2022-09-13T12:33:19;19.90;99.90
8957;DHT22;4513;50.054;8.230;2022-09-13T12:35:53;19.90;99.90
8957;DHT22;4513;50.054;8.230;2022-09-13T12:38:42;20.00;99.90
8957;DHT22;4513;50.054;8.230;2022-09-13T12:41:24;19.80;99.90
8957;DHT22;4513;50.054;8.230;2022-09-13T12:44:16;19.90;99.90
8957;DHT22;4513;50.054;8.230;2022-09-13T12:50:24;20.00;99.90
8957;DHT22;4513;50.054;8.230;2022-09-13T12:53:00;20.00;99.90
8957;DHT22;4513;50.054;8.230;2022-09-13T12:55:47;20.00;99.90
8957;DHT22;4513;50.054;8.230;2022-09-13T12:58:28;20.20;99.90
8957;DHT22;4513;50.054;8.230;2022-09-13T13:01:07;20.20;99.90
8957;DHT22;4513;50.054;8.230;2022-09-13T13:03:42;20.20;99.90
8957;DHT22;4513;50.054;8.230;2022-09-13T13:06:20;20.20;99.90
8957;DHT22;4513;50.054;8.230;2022-09-13T13:08:52;20.20;99.90
8957;DHT22;4513;50.054;8.230;2022-09-13T13:11:23;20.20;99.90
8957;DHT22;4513;50.054;8.230;2022-09-13T13:13:55;20.20;99.90
8957;DHT22;4513;50.054;8.230;2022-09-13T13:16:29;20.30;99.90
8957;DHT22;4513;50.054;8.230;2022-09-13T13:18:58;20.20;99.90
8957;DHT22;4513;50.054;8.230;2022-09-13T13:21:35;20.20;99.90
8957;DHT22;4513;50.054;8.230;2022-09-13T13:27:39;20.10;99.90
8957;DHT22;4513;50.054;8.230;2022-09-13T13:33:18;20.20;99.90
8957;DHT22;4513;50.054;8.230;2022-09-13T13:35:46;20.30;99.90
8957;DHT22;4513;50.054;8.230;2022-09-13T13:38:42;20.40;99.90
8957;DHT22;4513;50.054;8.230;2022-09-13T13:41:43;20.50;99.90
8957;DHT22;4513;50.054;8.230;2022-09-13T13:48:05;20.60;99.90
8957;DHT22;4513;50.054;8.230;2022-09-13T13:50:32;20.60;99.90
8957;DHT22;4513;50.054;8.230;2022-09-13T13:53:18;20.60;99.90
8957;DHT22;4513;50.054;8.230;2022-09-13T13:55:47;20.60;99.90
8957;DHT22;4513;50.054;8.230;2022-09-13T13:58:26;20.60;99.90
8957;DHT22;4513;50.054;8.230;2022-09-13T14:00:59;20.60;99.90
8957;DHT22;4513;50.054;8.230;2022-09-13T14:03:41;20.60;99.90
8957;DHT22;4513;50.054;8.230;2022-09-13T14:06:16;20.60;99.90
8957;DHT22;4513;50.054;8.230;2022-09-13T14:09:07;20.60;99.90
8957;DHT22;4513;50.054;8.230;2022-09-13T14:11:51;20.60;99.90
8957;DHT22;4513;50.054;8.230;2022-09-13T14:14:40;20.50;99.90
8957;DHT22;4513;50.054;8.230;2022-09-13T14:17:40;20.50;99.90
8957;DHT22;4513;50.054;8.230;2022-09-13T14:20:11;20.50;99.90
8957;DHT22;4513;50.054;8.230;2022-09-13T14:22:40;20.60;99.90
8957;DHT22;4513;50.054;8.230;2022-09-13T14:25:20;20.40;99.90
8957;DHT22;4513;50.054;8.230;2022-09-13T14:27:50;20.40;99.90
8957;DHT22;4513;50.054;8.230;2022-09-13T14:30:19;20.50;99.90
8957;DHT22;4513;50.054;8.230;2022-09-13T14:32:49;20.50;99.90
8957;DHT22;4513;50.054;8.230;2022-09-13T14:35:26;20.50;99.90
8957;DHT22;4513;50.054;8.230;2022-09-13T14:37:54;20.50;99.90
8957;DHT22;4513;50.054;8.230;2022-09-13T14:40:23;20.50;99.90
8957;DHT22;4513;50.054;8.230;2022-09-13T14:42:54;20.50;99.90
8957;DHT22;4513;50.054;8.230;2022-09-13T14:45:26;20.50;99.90
8957;DHT22;4513;50.054;8.230;2022-09-13T14:47:58;20.40;99.90
8957;DHT22;4513;50.054;8.230;2022-09-13T14:50:32;20.60;99.90
8957;DHT22;4513;50.054;8.230;2022-09-13T14:53:01;20.70;99.90
8957;DHT22;4513;50.054;8.230;2022-09-13T14:55:32;20.70;99.90
8957;DHT22;4513;50.054;8.230;2022-09-13T14:58:02;20.70;99.90
8957;DHT22;4513;50.054;8.230;2022-09-13T15:00:32;20.70;99.90
8957;DHT22;4513;50.054;8.230;2022-09-13T15:03:03;20.60;99.90
8957;DHT22;4513;50.054;8.230;2022-09-13T15:05:32;20.60;99.90
8957;DHT22;4513;50.054;8.230;2022-09-13T15:07:59;20.60;99.90
8957;DHT22;4513;50.054;8.230;2022-09-13T15:10:46;20.50;99.90
8957;DHT22;4513;50.054;8.230;2022-09-13T15:13:15;20.50;99.90
8957;DHT22;4513;50.054;8.230;2022-09-13T15:15:42;20.40;99.90
8957;DHT22;4513;50.054;8.230;2022-09-13T15:18:23;20.40;99.90
8957;DHT22;4513;50.054;8.230;2022-09-13T15:20:52;20.40;99.90
8957;DHT22;4513;50.054;8.230;2022-09-13T15:23:22;20.40;99.90
8957;DHT22;4513;50.054;8.230;2022-09-13T15:25:52;20.40;99.90
8957;DHT22;4513;50.054;8.230;2022-09-13T15:28:23;20.40;99.90
8957;DHT22;4513;50.054;8.230;2022-09-13T15:30:50;20.40;99.90
8957;DHT22;4513;50.054;8.230;2022-09-13T15:33:26;20.50;99.90
8957;DHT22;4513;50.054;8.230;2022-09-13T15:36:11;20.40;99.90
8957;DHT22;4513;50.054;8.230;2022-09-13T15:38:56;20.40;99.90
8957;DHT22;4513;50.054;8.230;2022-09-13T15:41:28;20.40;99.90
8957;DHT22;4513;50.054;8.230;2022-09-13T15:43:57;20.40;99.90
8957;DHT22;4513;50.054;8.230;2022-09-13T15:46:24;20.30;99.90
8957;DHT22;4513;50.054;8.230;2022-09-13T15:48:53;20.30;99.90
8957;DHT22;4513;50.054;8.230;2022-09-13T15:51:21;20.40;99.90
8957;DHT22;4513;50.054;8.230;2022-09-13T15:53:48;20.60;99.90
8957;DHT22;4513;50.054;8.230;2022-09-13T15:56:17;20.60;99.90
8957;DHT22;4513;50.054;8.230;2022-09-13T15:58:44;20.40;99.90
8957;DHT22;4513;50.054;8.230;2022-09-13T16:01:14;20.30;99.90
8957;DHT22;4513;50.054;8.230;2022-09-13T16:03:41;20.30;99.90
8957;DHT22;4513;50.054;8.230;2022-09-13T16:06:09;20.30;99.90
8957;DHT22;4513;50.054;8.230;2022-09-13T16:08:36;20.30;99.90
8957;DHT22;4513;50.054;8.230;2022-09-13T16:11:05;20.30;99.90
8957;DHT22;4513;50.054;8.230;2022-09-13T16:13:32;20.20;99.90
8957;DHT22;4513;50.054;8.230;2022-09-13T16:15:59;20.00;99.90
8957;DHT22;4513;50.054;8.230;2022-09-13T16:18:27;20.00;99.90
8957;DHT22;4513;50.054;8.230;2022-09-13T16:20:54;19.90;99.90
8957;DHT22;4513;50.054;8.230;2022-09-13T16:23:21;19.90;99.90
8957;DHT22;4513;50.054;8.230;2022-09-13T16:25:49;19.90;99.90
8957;DHT22;4513;50.054;8.230;2022-09-13T16:28:19;19.90;99.90
8957;DHT22;4513;50.054;8.230;2022-09-13T16:30:46;20.00;99.90
8957;DHT22;4513;50.054;8.230;2022-09-13T16:33:14;20.10;99.90
8957;DHT22;4513;50.054;8.230;2022-09-13T16:35:42;20.10;99.90
8957;DHT22;4513;50.054;8.230;2022-09-13T16:38:09;20.00;99.90
8957;DHT22;4513;50.054;8.230;2022-09-13T16:40:37;20.00;99.90
8957;DHT22;4513;50.054;8.230;2022-09-13T16:43:04;19.90;99.90
8957;DHT22;4513;50.054;8.230;2022-09-13T16:45:31;19.90;99.90
8957;DHT22;4513;50.054;8.230;2022-09-13T16:47:58;20.00;99.90
8957;DHT22;4513;50.054;8.230;2022-09-13T16:50:24;20.00;99.90
8957;DHT22;4513;50.054;8.230;2022-09-13T16:52:53;20.00;99.90